createdAt,value
2022-11-18T00:01:22.637Z,-0.46
2022-11-18T00:03:51.320Z,-0.53
2022-11-18T00:06:21.689Z,-0.59
2022-11-18T00:08:49.619Z,-0.64
2022-11-18T00:11:39.532Z,-0.69
2022-11-18T00:14:20.900Z,-0.79
2022-11-18T00:17:03.353Z,-0.79
2022-11-18T00:19:36.421Z,-0.79
2022-11-18T00:22:05.469Z,-0.78
2022-11-18T00:24:33.365Z,-0.76
2022-11-18T00:27:00.644Z,-0.72
2022-11-18T00:29:28.816Z,-0.74
2022-11-18T00:31:57.514Z,-0.81
2022-11-18T00:34:26.121Z,-0.82
2022-11-18T00:36:53.773Z,-0.81
2022-11-18T00:39:21.861Z,-0.86
2022-11-18T00:42:08.712Z,-0.88
2022-11-18T00:44:37.276Z,-0.98
2022-11-18T00:47:05.291Z,-0.97
2022-11-18T00:49:32.555Z,-0.99
2022-11-18T00:52:00.053Z,-1.08
2022-11-18T00:54:27.234Z,-1.09
2022-11-18T00:56:54.642Z,-1.11
2022-11-18T00:59:22.111Z,-1.09
2022-11-18T01:01:50.555Z,-1.10
2022-11-18T01:04:18.047Z,-1.05
2022-11-18T01:06:45.214Z,-1.02
2022-11-18T01:09:12.509Z,-0.99
2022-11-18T01:11:58.177Z,-1.06
2022-11-18T01:14:26.237Z,-1.07
2022-11-18T01:16:57.298Z,-1.08
2022-11-18T01:19:25.485Z,-1.19
2022-11-18T01:21:53.108Z,-1.09
2022-11-18T01:24:20.550Z,-1.11
2022-11-18T01:26:47.795Z,-1.15
2022-11-18T01:29:16.130Z,-1.17
2022-11-18T01:32:01.810Z,-1.17
2022-11-18T01:34:30.768Z,-1.17
2022-11-18T01:36:58.880Z,-1.20
2022-11-18T01:39:26.162Z,-1.20
2022-11-18T01:41:53.628Z,-1.23
2022-11-18T01:44:58.626Z,-1.17
2022-11-18T01:47:45.103Z,-1.15
2022-11-18T01:50:15.741Z,-1.11
2022-11-18T01:52:47.407Z,-1.10
2022-11-18T01:55:24.067Z,-1.03
2022-11-18T01:57:53.382Z,-1.00
2022-11-18T02:00:21.184Z,-0.97
2022-11-18T02:02:49.437Z,-0.88
2022-11-18T02:05:17.783Z,-0.86
2022-11-18T02:07:45.325Z,-1.07
2022-11-18T02:10:25.284Z,-0.90
2022-11-18T02:12:54.810Z,-0.86
2022-11-18T02:15:44.383Z,-0.81
2022-11-18T02:18:20.075Z,-0.79
2022-11-18T02:20:51.613Z,-0.75
2022-11-18T02:23:40.339Z,-0.67
2022-11-18T02:26:49.692Z,-0.68
2022-11-18T02:29:24.501Z,-0.71
2022-11-18T02:32:13.818Z,-0.70
2022-11-18T02:34:58.440Z,-0.67
2022-11-18T02:37:39.345Z,-0.69
2022-11-18T02:40:15.545Z,-0.72
2022-11-18T02:42:46.388Z,-0.77
2022-11-18T02:45:17.910Z,-0.74
2022-11-18T02:47:48.802Z,-0.79
2022-11-18T02:50:21.634Z,-0.71
2022-11-18T02:52:53.686Z,-0.62
2022-11-18T02:55:24.040Z,-0.65
2022-11-18T02:57:53.237Z,-0.62
2022-11-18T03:00:20.669Z,-0.73
2022-11-18T03:02:50.324Z,-0.79
2022-11-18T03:05:46.019Z,-0.78
2022-11-18T03:08:20.019Z,-0.77
2022-11-18T03:10:59.409Z,-0.81
2022-11-18T03:14:08.264Z,-0.76
2022-11-18T03:17:04.118Z,-0.77
2022-11-18T03:20:26.393Z,-0.84
2022-11-18T03:23:01.221Z,-0.87
2022-11-18T03:25:45.683Z,-0.94
2022-11-18T03:28:59.236Z,-0.94
2022-11-18T03:31:51.882Z,-1.09
2022-11-18T03:34:43.602Z,-1.03
2022-11-18T03:37:14.394Z,-0.91
2022-11-18T03:39:47.964Z,-0.94
2022-11-18T03:42:25.464Z,-0.95
2022-11-18T03:44:58.823Z,-0.92
2022-11-18T03:47:33.233Z,-0.98
2022-11-18T03:50:18.093Z,-0.96
2022-11-18T03:52:47.753Z,-0.90
2022-11-18T03:55:22.073Z,-0.94
2022-11-18T03:58:03.754Z,-1.03
2022-11-18T04:00:39.142Z,-1.02
2022-11-18T04:03:07.483Z,-1.14
2022-11-18T04:05:40.064Z,-1.05
2022-11-18T04:08:20.428Z,-1.06
2022-11-18T04:10:56.102Z,-1.00
2022-11-18T04:13:30.682Z,-1.06
2022-11-18T04:15:58.604Z,-1.03
2022-11-18T04:18:26.303Z,-0.99
2022-11-18T04:20:54.402Z,-0.95
2022-11-18T04:23:22.453Z,-0.93
2022-11-18T04:25:51.526Z,-0.93
2022-11-18T04:28:19.156Z,-0.93
2022-11-18T04:30:46.896Z,-0.87
2022-11-18T04:33:14.742Z,-0.85
2022-11-18T04:35:42.503Z,-0.92
2022-11-18T04:38:10.302Z,-0.90
2022-11-18T04:40:38.112Z,-0.92
2022-11-18T04:43:05.852Z,-0.98
2022-11-18T04:45:33.952Z,-1.01
2022-11-18T04:48:03.686Z,-1.05
2022-11-18T04:50:32.237Z,-1.03
2022-11-18T04:53:00.222Z,-1.08
2022-11-18T04:55:28.205Z,-1.06
2022-11-18T04:57:55.952Z,-1.13
2022-11-18T05:00:24.205Z,-1.08
2022-11-18T05:02:51.902Z,-0.99
2022-11-18T05:05:20.342Z,-0.96
2022-11-18T05:07:48.145Z,-0.95
2022-11-18T05:10:16.443Z,-0.97
2022-11-18T05:12:50.413Z,-0.97
2022-11-18T05:15:22.024Z,-0.99
2022-11-18T05:17:49.892Z,-1.03
2022-11-18T05:20:18.016Z,-0.97
2022-11-18T05:22:45.841Z,-0.95
2022-11-18T05:25:13.713Z,-0.95
2022-11-18T05:27:41.654Z,-0.97
2022-11-18T05:30:10.293Z,-1.02
2022-11-18T05:32:38.232Z,-1.02
2022-11-18T05:35:06.763Z,-0.98
2022-11-18T05:37:34.574Z,-0.99
2022-11-18T05:40:02.414Z,-1.08
2022-11-18T05:42:48.652Z,-1.17
2022-11-18T05:45:19.752Z,-1.24
2022-11-18T05:48:04.737Z,-1.32
2022-11-18T05:50:34.941Z,-1.31
2022-11-18T05:53:04.062Z,-1.31
2022-11-18T05:55:49.013Z,-1.34
2022-11-18T05:58:16.803Z,-1.30
2022-11-18T06:00:50.422Z,-1.26
2022-11-18T06:03:30.571Z,-1.23
2022-11-18T06:06:02.502Z,-1.21
2022-11-18T06:08:36.232Z,-1.23
2022-11-18T06:11:04.803Z,-1.25
2022-11-18T06:13:41.963Z,-1.19
2022-11-18T06:16:10.145Z,-1.18
2022-11-18T06:18:39.692Z,-1.15
2022-11-18T06:21:07.612Z,-1.14
2022-11-18T06:23:38.057Z,-1.17
2022-11-18T06:26:08.374Z,-1.09
2022-11-18T06:28:37.483Z,-1.08
2022-11-18T06:31:05.622Z,-1.11
2022-11-18T06:33:33.694Z,-1.06
2022-11-18T06:36:01.663Z,-1.04
2022-11-18T06:38:29.508Z,-1.04
2022-11-18T06:41:06.215Z,-1.07
2022-11-18T06:43:42.118Z,-0.99
2022-11-18T06:46:35.655Z,-1.04
2022-11-18T06:49:03.675Z,-0.95
2022-11-18T06:51:31.313Z,-0.92
2022-11-18T06:53:58.649Z,-0.91
2022-11-18T06:56:26.442Z,-0.90
2022-11-18T06:58:58.381Z,-0.91
2022-11-18T07:01:28.578Z,-0.85
2022-11-18T07:03:59.183Z,-0.87
2022-11-18T07:06:29.050Z,-0.85
2022-11-18T07:08:57.040Z,-0.82
2022-11-18T07:11:26.537Z,-0.83
2022-11-18T07:13:54.585Z,-0.80
2022-11-18T07:16:26.397Z,-0.80
2022-11-18T07:18:54.996Z,-0.80
2022-11-18T07:21:27.951Z,-0.77
2022-11-18T07:23:56.728Z,-0.77
2022-11-18T07:26:24.448Z,-0.75
2022-11-18T07:28:51.922Z,-0.72
2022-11-18T07:31:21.206Z,-0.71
2022-11-18T07:33:49.243Z,-0.70
2022-11-18T07:36:36.052Z,-0.69
2022-11-18T07:39:07.066Z,-0.71
2022-11-18T07:41:34.583Z,-0.73
2022-11-18T07:44:03.501Z,-0.76
2022-11-18T07:46:33.353Z,-0.80
2022-11-18T07:49:03.461Z,-0.77
2022-11-18T07:51:31.640Z,-0.77
2022-11-18T07:53:58.970Z,-0.57
2022-11-18T07:56:26.355Z,-0.35
2022-11-18T07:58:56.830Z,-0.30
2022-11-18T08:01:29.286Z,0.04
2022-11-18T08:03:57.989Z,0.20
2022-11-18T08:06:25.316Z,0.30
2022-11-18T08:08:53.214Z,0.36
2022-11-18T08:11:22.868Z,0.34
2022-11-18T08:13:52.239Z,0.45
2022-11-18T08:16:22.570Z,0.47
2022-11-18T08:18:50.764Z,0.38
2022-11-18T08:21:20.227Z,0.20
2022-11-18T08:23:56.266Z,0.13
2022-11-18T08:26:25.307Z,0.13
2022-11-18T08:28:53.040Z,0.13
2022-11-18T08:31:24.612Z,0.07
2022-11-18T08:34:00.672Z,0.03
2022-11-18T08:36:30.851Z,0.01
2022-11-18T08:38:58.917Z,0.05
2022-11-18T08:41:33.037Z,0.15
2022-11-18T08:44:01.745Z,0.15
2022-11-18T08:46:30.207Z,0.06
2022-11-18T08:48:58.404Z,0.20
2022-11-18T08:51:26.850Z,0.16
2022-11-18T08:53:54.511Z,0.22
2022-11-18T08:56:24.317Z,0.24
2022-11-18T08:58:52.710Z,0.19
2022-11-18T09:01:20.377Z,0.26
2022-11-18T09:03:49.642Z,0.32
2022-11-18T09:06:23.091Z,0.36
2022-11-18T09:08:50.639Z,0.36
2022-11-18T09:11:21.337Z,0.37
2022-11-18T09:16:45.398Z,0.27
2022-11-18T09:19:40.148Z,0.29
2022-11-18T09:22:00.249Z,0.36
2022-11-18T09:24:28.465Z,0.46
2022-11-18T09:26:55.849Z,0.52
2022-11-18T09:29:26.472Z,0.56
2022-11-18T09:31:54.533Z,0.63
2022-11-18T09:34:22.959Z,0.67
2022-11-18T09:36:51.163Z,0.66
2022-11-18T09:39:19.329Z,0.64
2022-11-18T09:42:01.071Z,0.69
2022-11-18T09:44:40.669Z,0.69
2022-11-18T09:47:30.770Z,0.75
2022-11-18T09:50:14.853Z,0.80
2022-11-18T09:52:51.973Z,0.85
2022-11-18T09:55:19.971Z,0.85
2022-11-18T09:57:55.126Z,0.80
2022-11-18T10:00:33.390Z,0.76
2022-11-18T10:03:10.338Z,0.73
2022-11-18T10:05:56.505Z,0.75
2022-11-18T10:08:29.609Z,0.83
2022-11-18T10:11:07.955Z,0.92
2022-11-18T10:13:35.030Z,1.00
2022-11-18T10:16:24.583Z,0.99
2022-11-18T10:19:17.587Z,0.98
2022-11-18T10:22:18.049Z,0.93
2022-11-18T10:24:54.081Z,0.93
2022-11-18T10:27:22.323Z,0.96
2022-11-18T10:29:54.450Z,0.96
2022-11-18T10:32:21.762Z,0.95
2022-11-18T10:34:53.468Z,0.97
2022-11-18T10:38:05.730Z,0.94
2022-11-18T10:40:28.292Z,0.92
2022-11-18T10:42:56.049Z,0.92
2022-11-18T10:45:23.030Z,0.86
2022-11-18T10:48:20.965Z,0.85
2022-11-18T10:50:55.662Z,0.75
2022-11-18T10:53:32.253Z,0.86
2022-11-18T10:56:01.403Z,0.98
2022-11-18T10:58:34.710Z,1.02
2022-11-18T11:01:14.561Z,1.04
2022-11-18T11:03:43.641Z,1.07
2022-11-18T11:06:20.666Z,1.09
2022-11-18T11:08:52.260Z,1.06
2022-11-18T11:11:43.433Z,1.06
2022-11-18T11:14:19.504Z,1.14
2022-11-18T11:17:05.629Z,1.15
2022-11-18T11:19:51.612Z,1.07
2022-11-18T11:22:18.850Z,0.95
2022-11-18T11:24:46.219Z,0.87
2022-11-18T11:31:18.937Z,0.74
2022-11-18T11:33:57.635Z,0.73
2022-11-18T11:36:40.095Z,0.75
2022-11-18T11:39:10.197Z,0.76
2022-11-18T11:41:52.230Z,0.72
2022-11-18T11:44:40.204Z,0.74
2022-11-18T11:47:42.740Z,0.74
2022-11-18T11:50:59.995Z,0.79
2022-11-18T11:54:12.244Z,0.82
2022-11-18T11:56:49.377Z,0.85
2022-11-18T11:59:29.121Z,0.83
2022-11-18T12:02:33.552Z,0.76
2022-11-18T12:05:09.116Z,0.66
2022-11-18T12:07:54.418Z,0.68
2022-11-18T12:10:37.187Z,0.76
2022-11-18T12:13:08.978Z,0.88
2022-11-18T12:16:30.490Z,0.98
2022-11-18T12:19:02.941Z,0.99
2022-11-18T12:21:47.945Z,0.99
2022-11-18T12:24:17.932Z,0.97
2022-11-18T12:26:47.352Z,0.98
2022-11-18T12:29:24.705Z,0.94
2022-11-18T12:32:04.252Z,0.95
2022-11-18T12:34:44.986Z,0.97
2022-11-18T12:37:20.790Z,1.00
2022-11-18T12:39:49.543Z,1.01
2022-11-18T12:42:55.344Z,0.96
2022-11-18T12:45:39.008Z,0.92
2022-11-18T12:48:30.073Z,0.93
2022-11-18T12:51:26.821Z,0.98
2022-11-18T12:53:54.862Z,1.02
2022-11-18T12:56:27.748Z,1.03
2022-11-18T12:59:00.763Z,1.06
2022-11-18T13:01:31.355Z,1.00
2022-11-18T13:04:13.349Z,0.98
2022-11-18T13:06:41.190Z,0.89
2022-11-18T13:09:19.785Z,0.79
2022-11-18T13:11:53.152Z,0.75
2022-11-18T13:14:52.276Z,0.70
2022-11-18T13:17:49.944Z,0.79
2022-11-18T13:20:25.282Z,0.82
2022-11-18T13:23:12.804Z,0.83
2022-11-18T13:25:42.763Z,0.86
2022-11-18T13:28:19.577Z,0.83
2022-11-18T13:30:57.369Z,0.85
2022-11-18T13:33:24.450Z,0.81
2022-11-18T13:35:51.554Z,0.82
2022-11-18T13:38:27.750Z,0.74
2022-11-18T13:41:15.080Z,0.76
2022-11-18T13:43:42.212Z,0.78
2022-11-18T13:46:18.997Z,0.74
2022-11-18T13:48:58.143Z,0.74
2022-11-18T13:51:26.682Z,0.74
2022-11-18T13:53:53.882Z,0.67
2022-11-18T13:56:27.056Z,0.61
2022-11-18T13:59:18.112Z,0.65
2022-11-18T14:01:47.242Z,0.61
2022-11-18T14:04:21.366Z,0.53
2022-11-18T14:06:49.412Z,0.48
2022-11-18T14:09:29.570Z,0.43
2022-11-18T14:12:05.603Z,0.38
2022-11-18T14:14:38.545Z,0.35
2022-11-18T14:17:25.279Z,0.31
2022-11-18T14:19:55.430Z,0.28
2022-11-18T14:22:24.170Z,0.28
2022-11-18T14:25:24.690Z,0.28
2022-11-18T14:27:53.676Z,0.31
2022-11-18T14:30:34.584Z,0.36
2022-11-18T14:33:24.435Z,0.40
2022-11-18T14:36:00.137Z,0.38
2022-11-18T14:38:52.415Z,0.38
2022-11-18T14:41:48.510Z,0.38
2022-11-18T14:44:16.585Z,0.36
2022-11-18T14:46:46.558Z,0.41
2022-11-18T14:49:17.328Z,0.43
2022-11-18T14:51:45.436Z,0.47
2022-11-18T14:54:23.814Z,0.49
2022-11-18T14:56:55.903Z,0.47
2022-11-18T14:59:23.309Z,0.52
2022-11-18T15:01:50.522Z,0.53
2022-11-18T15:04:18.407Z,0.58
2022-11-18T15:06:45.856Z,0.58
2022-11-18T15:09:13.291Z,0.58
2022-11-18T15:11:40.473Z,0.55
2022-11-18T15:14:07.629Z,0.55
2022-11-18T15:16:35.682Z,0.53
2022-11-18T15:19:04.826Z,0.51
2022-11-18T15:21:32.689Z,0.41
2022-11-18T15:23:59.865Z,0.40
2022-11-18T15:26:36.115Z,0.39
2022-11-18T15:29:03.725Z,0.38
2022-11-18T15:31:30.831Z,0.33
2022-11-18T15:34:03.457Z,0.38
2022-11-18T15:36:33.864Z,0.41
2022-11-18T15:39:01.132Z,0.37
2022-11-18T15:41:30.030Z,0.38
2022-11-18T15:43:59.545Z,0.38
2022-11-18T15:46:28.148Z,0.38
2022-11-18T15:48:56.517Z,0.39
2022-11-18T15:51:25.294Z,0.41
2022-11-18T15:53:52.678Z,0.40
2022-11-18T15:56:19.720Z,0.41
2022-11-18T15:58:56.342Z,0.42
2022-11-18T16:01:28.234Z,0.43
2022-11-18T16:03:55.829Z,0.46
2022-11-18T16:06:23.459Z,0.45
2022-11-18T16:08:55.874Z,0.46
2022-11-18T16:11:46.709Z,0.42
2022-11-18T16:14:15.654Z,0.42
2022-11-18T16:16:44.060Z,0.40
2022-11-18T16:19:13.600Z,0.39
2022-11-18T16:21:43.119Z,0.37
2022-11-18T16:24:14.926Z,0.34
2022-11-18T16:26:42.061Z,0.32
2022-11-18T16:29:11.998Z,0.29
2022-11-18T16:31:43.903Z,0.29
2022-11-18T16:34:16.255Z,0.30
2022-11-18T16:36:45.999Z,0.31
2022-11-18T16:39:14.244Z,0.31
2022-11-18T16:41:42.875Z,0.30
2022-11-18T16:44:12.961Z,0.30
2022-11-18T16:46:41.045Z,0.26
2022-11-18T16:49:12.388Z,0.30
2022-11-18T16:51:42.824Z,0.31
2022-11-18T16:54:19.881Z,0.33
2022-11-18T16:56:48.142Z,0.34
2022-11-18T16:59:18.043Z,0.31
2022-11-18T17:01:45.452Z,0.29
2022-11-18T17:04:12.759Z,0.26
2022-11-18T17:06:40.861Z,0.24
2022-11-18T17:09:12.582Z,0.26
2022-11-18T17:11:39.728Z,0.24
2022-11-18T17:14:06.799Z,0.15
2022-11-18T17:16:35.950Z,0.14
2022-11-18T17:19:10.101Z,0.16
2022-11-18T17:21:38.995Z,0.16
2022-11-18T17:24:07.999Z,0.19
2022-11-18T17:26:35.628Z,0.19
2022-11-18T17:29:02.717Z,0.15
2022-11-18T17:31:29.960Z,0.18
2022-11-18T17:33:57.121Z,0.24
2022-11-18T17:36:26.322Z,0.22
2022-11-18T17:38:55.773Z,0.06
2022-11-18T17:41:43.490Z,0.24
2022-11-18T17:44:12.795Z,0.16
2022-11-18T17:46:40.489Z,0.17
2022-11-18T17:49:13.711Z,0.17
2022-11-18T17:51:41.268Z,0.07
2022-11-18T17:54:09.582Z,0.12
2022-11-18T17:56:36.701Z,0.15
2022-11-18T17:59:03.984Z,0.15
2022-11-18T18:01:31.184Z,0.14
2022-11-18T18:03:58.453Z,0.09
2022-11-18T18:06:27.029Z,0.06
2022-11-18T18:09:00.410Z,0.05
2022-11-18T18:11:28.004Z,0.06
2022-11-18T18:14:13.984Z,0.05
2022-11-18T18:16:45.194Z,0.07
2022-11-18T18:19:20.574Z,0.10
2022-11-18T18:21:48.516Z,0.07
2022-11-18T18:24:18.604Z,0.11
2022-11-18T18:26:45.952Z,0.11
2022-11-18T18:29:13.521Z,0.07
2022-11-18T18:31:40.909Z,0.11
2022-11-18T18:34:08.232Z,0.07
2022-11-18T18:36:35.685Z,0.06
2022-11-18T18:39:03.353Z,0.04
2022-11-18T18:41:31.316Z,0.08
2022-11-18T18:43:58.661Z,0.09
2022-11-18T18:46:31.025Z,0.06
2022-11-18T18:49:11.760Z,0.05
2022-11-18T18:51:41.228Z,0.08
2022-11-18T18:54:11.976Z,0.08
2022-11-18T18:56:39.317Z,0.04
2022-11-18T18:59:07.510Z,0.06
2022-11-18T19:01:34.742Z,0.04
2022-11-18T19:04:04.221Z,0.09
2022-11-18T19:06:58.451Z,0.06
2022-11-18T19:09:22.461Z,0.08
2022-11-18T19:12:08.224Z,0.06
2022-11-18T19:14:35.749Z,0.05
2022-11-18T19:17:09.562Z,0.02
2022-11-18T19:19:56.973Z,0.02
2022-11-18T19:22:24.532Z,-0.03
2022-11-18T19:24:52.009Z,-0.05
2022-11-18T19:27:20.068Z,-0.08
2022-11-18T19:29:47.499Z,-0.14
2022-11-18T19:32:15.303Z,-0.26
2022-11-18T19:34:42.573Z,-0.31
2022-11-18T19:37:09.881Z,-0.26
2022-11-18T19:39:38.748Z,-0.31
2022-11-18T19:42:06.342Z,-0.35
2022-11-18T19:44:33.660Z,-0.38
2022-11-18T19:47:00.779Z,-0.45
2022-11-18T19:49:27.950Z,-0.51
2022-11-18T19:51:55.066Z,-0.55
2022-11-18T19:54:22.330Z,-0.59
2022-11-18T19:56:49.442Z,-0.61
2022-11-18T19:59:16.798Z,-0.66
2022-11-18T20:01:44.210Z,-0.71
2022-11-18T20:04:11.487Z,-0.78
2022-11-18T20:06:39.348Z,-0.76
2022-11-18T20:09:11.350Z,-0.77
2022-11-18T20:11:38.685Z,-0.86
2022-11-18T20:14:07.317Z,-0.84
2022-11-18T20:16:36.801Z,-0.85
2022-11-18T20:19:10.505Z,-0.82
2022-11-18T20:21:39.463Z,-0.82
2022-11-18T20:24:07.936Z,-0.82
2022-11-18T20:26:37.707Z,-0.82
2022-11-18T20:29:06.309Z,-0.85
2022-11-18T20:31:34.050Z,-0.88
2022-11-18T20:34:01.842Z,-0.99
2022-11-18T20:36:31.947Z,-0.98
2022-11-18T20:39:01.168Z,-1.09
2022-11-18T20:41:32.468Z,-1.12
2022-11-18T20:44:00.710Z,-1.06
2022-11-18T20:46:28.348Z,-1.11
2022-11-18T20:48:55.950Z,-1.08
2022-11-18T20:51:25.288Z,-1.09
2022-11-18T20:53:54.039Z,-1.08
2022-11-18T20:56:24.236Z,-1.10
2022-11-18T20:58:51.510Z,-1.13
2022-11-18T21:01:21.970Z,-1.15
2022-11-18T21:03:54.679Z,-1.19
2022-11-18T21:06:27.284Z,-1.16
2022-11-18T21:08:59.534Z,-1.18
2022-11-18T21:11:27.473Z,-1.13
2022-11-18T21:14:16.025Z,-1.17
2022-11-18T21:16:46.271Z,-1.14
2022-11-18T21:19:13.785Z,-1.25
2022-11-18T21:21:49.089Z,-1.17
2022-11-18T21:24:43.707Z,-1.19
2022-11-18T21:27:10.870Z,-1.24
2022-11-18T21:29:37.969Z,-1.24
2022-11-18T21:32:05.377Z,-1.22
2022-11-18T21:34:32.561Z,-1.23
2022-11-18T21:36:59.804Z,-1.32
2022-11-18T21:39:27.669Z,-1.34
2022-11-18T21:41:57.324Z,-1.40
2022-11-18T21:44:28.487Z,-1.42
2022-11-18T21:46:55.973Z,-1.64
2022-11-18T21:49:23.218Z,-1.36
2022-11-18T21:51:50.629Z,-1.39
2022-11-18T21:54:18.538Z,-1.43
2022-11-18T21:56:45.730Z,-1.48
2022-11-18T21:59:12.828Z,-1.53
2022-11-18T22:01:39.897Z,-1.56
2022-11-18T22:04:07.468Z,-1.55
2022-11-18T22:06:35.345Z,-1.56
2022-11-18T22:09:04.270Z,-1.57
2022-11-18T22:11:31.509Z,-1.54
2022-11-18T22:13:58.892Z,-1.56
2022-11-18T22:16:27.306Z,-1.54
2022-11-18T22:19:01.406Z,-1.58
2022-11-18T22:21:32.345Z,-1.60
2022-11-18T22:24:01.093Z,-1.58
2022-11-18T22:26:29.240Z,-1.61
2022-11-18T22:28:58.209Z,-1.63
2022-11-18T22:31:27.231Z,-1.69
2022-11-18T22:33:56.632Z,-1.71
2022-11-18T22:36:26.509Z,-1.80
2022-11-18T22:38:54.241Z,-1.87
2022-11-18T22:41:42.174Z,-1.92
2022-11-18T22:44:10.407Z,-2.00
2022-11-18T22:46:39.083Z,-2.00
2022-11-18T22:49:07.732Z,-2.05
2022-11-18T22:51:38.613Z,-2.13
2022-11-18T22:56:55.002Z,-2.26
2022-11-18T22:59:22.749Z,-2.29
2022-11-18T23:01:53.397Z,-2.24
2022-11-18T23:04:20.689Z,-2.18
2022-11-18T23:06:49.028Z,-2.14
2022-11-18T23:09:17.248Z,-2.17
2022-11-18T23:12:03.124Z,-2.22
2022-11-18T23:14:30.410Z,-2.21
2022-11-18T23:16:57.671Z,-2.18
2022-11-18T23:19:24.862Z,-2.22
2022-11-18T23:21:52.018Z,-2.31
2022-11-18T23:24:20.213Z,-2.40
2022-11-18T23:26:48.150Z,-2.31
2022-11-18T23:29:16.059Z,-2.29
2022-11-18T23:31:44.838Z,-2.31
2022-11-18T23:34:12.999Z,-2.35
2022-11-18T23:36:40.370Z,-2.29
2022-11-18T23:39:07.880Z,-2.29
2022-11-18T23:41:35.467Z,-2.26
2022-11-18T23:44:02.792Z,-2.20
2022-11-18T23:46:30.095Z,-2.17
2022-11-18T23:48:57.401Z,-2.20
2022-11-18T23:51:25.775Z,-2.31
2022-11-18T23:53:55.717Z,-2.42
2022-11-18T23:56:25.290Z,-2.47
2022-11-18T23:58:54.413Z,-2.45
